Franklin, Alabama
Current Conditions -  °F | °C
As of 4:53 PM on Thursday 23 Oct 2014 (Local Time) from KGZH Reporting Station
Clear Clear  
Wind Chill: 76°   Ceiling: Unl
Heat Index: 76°   Visibility: 10mi
Dew Point: 40°   Wind: 5mph
Humidity: 27%   Direction: 10°N
Pressure: 30.03"   Gusts: NA
Location:  31.71°N, 87.44°W
Report Text: KGZH 232153Z AUTO 01004KT 10SM CLR 24/04 A3003 RMK AO2 SLP166 T02440044
Loading
Personal Weather Stations






























Interactive Weather Map
Tropical Storm Tracking
New forecast layout! Learn more

10-Day Weather Forecast

Advertisements
Track Severe Weather on mobile